sensor_id;sensor_type;location;lat;lon;timestamp;P1;durP1;ratioP1;P2;durP2;ratioP2
14139;SDS011;7150;53.514;9.988;2023-03-01T00:01:15;6.43;;;3.30;;
14139;SDS011;7150;53.514;9.988;2023-03-01T00:03:43;6.73;;;3.60;;
14139;SDS011;7150;53.514;9.988;2023-03-01T00:06:09;6.40;;;3.30;;
14139;SDS011;7150;53.514;9.988;2023-03-01T00:08:35;8.23;;;3.70;;
14139;SDS011;7150;53.514;9.988;2023-03-01T00:11:12;6.70;;;3.53;;
14139;SDS011;7150;53.514;9.988;2023-03-01T00:13:37;7.73;;;3.77;;
14139;SDS011;7150;53.514;9.988;2023-03-01T00:16:04;6.40;;;3.70;;
14139;SDS011;7150;53.514;9.988;2023-03-01T00:18:30;6.20;;;3.50;;
14139;SDS011;7150;53.514;9.988;2023-03-01T00:20:57;6.40;;;3.70;;
14139;SDS011;7150;53.514;9.988;2023-03-01T00:23:22;4.77;;;2.90;;
14139;SDS011;7150;53.514;9.988;2023-03-01T00:25:48;5.80;;;3.30;;
14139;SDS011;7150;53.514;9.988;2023-03-01T00:28:15;6.90;;;4.03;;
14139;SDS011;7150;53.514;9.988;2023-03-01T00:30:41;6.47;;;3.90;;
14139;SDS011;7150;53.514;9.988;2023-03-01T00:33:06;7.17;;;3.53;;
14139;SDS011;7150;53.514;9.988;2023-03-01T00:35:32;7.10;;;3.60;;
14139;SDS011;7150;53.514;9.988;2023-03-01T00:37:58;5.17;;;3.63;;
14139;SDS011;7150;53.514;9.988;2023-03-01T00:40:24;6.97;;;3.50;;
14139;SDS011;7150;53.514;9.988;2023-03-01T00:42:50;5.50;;;3.60;;
14139;SDS011;7150;53.514;9.988;2023-03-01T00:45:16;5.90;;;3.30;;
14139;SDS011;7150;53.514;9.988;2023-03-01T00:47:41;6.70;;;3.20;;
14139;SDS011;7150;53.514;9.988;2023-03-01T00:50:07;6.33;;;3.33;;
14139;SDS011;7150;53.514;9.988;2023-03-01T00:52:33;5.30;;;3.40;;
14139;SDS011;7150;53.514;9.988;2023-03-01T00:54:59;6.93;;;3.30;;
14139;SDS011;7150;53.514;9.988;2023-03-01T00:57:24;8.07;;;3.70;;
14139;SDS011;7150;53.514;9.988;2023-03-01T00:59:50;7.50;;;3.80;;
14139;SDS011;7150;53.514;9.988;2023-03-01T01:02:17;5.27;;;3.40;;
14139;SDS011;7150;53.514;9.988;2023-03-01T01:04:43;6.07;;;3.20;;
14139;SDS011;7150;53.514;9.988;2023-03-01T01:07:09;7.73;;;3.50;;
14139;SDS011;7150;53.514;9.988;2023-03-01T01:09:34;5.57;;;3.20;;
14139;SDS011;7150;53.514;9.988;2023-03-01T01:12:00;5.57;;;3.50;;
14139;SDS011;7150;53.514;9.988;2023-03-01T01:14:26;6.87;;;3.53;;
14139;SDS011;7150;53.514;9.988;2023-03-01T01:16:52;7.20;;;3.27;;
14139;SDS011;7150;53.514;9.988;2023-03-01T01:19:17;9.17;;;3.90;;
14139;SDS011;7150;53.514;9.988;2023-03-01T01:21:43;5.50;;;3.60;;
14139;SDS011;7150;53.514;9.988;2023-03-01T01:24:09;6.50;;;3.60;;
14139;SDS011;7150;53.514;9.988;2023-03-01T01:26:36;5.13;;;3.33;;
14139;SDS011;7150;53.514;9.988;2023-03-01T01:29:03;6.53;;;3.80;;
14139;SDS011;7150;53.514;9.988;2023-03-01T01:31:30;5.63;;;3.33;;
14139;SDS011;7150;53.514;9.988;2023-03-01T01:33:57;6.67;;;3.37;;
14139;SDS011;7150;53.514;9.988;2023-03-01T01:36:24;7.87;;;3.43;;
14139;SDS011;7150;53.514;9.988;2023-03-01T01:38:50;6.43;;;3.40;;
14139;SDS011;7150;53.514;9.988;2023-03-01T01:41:17;7.40;;;3.23;;
14139;SDS011;7150;53.514;9.988;2023-03-01T01:43:44;6.57;;;3.53;;
14139;SDS011;7150;53.514;9.988;2023-03-01T01:46:25;5.90;;;3.50;;
14139;SDS011;7150;53.514;9.988;2023-03-01T01:48:57;5.93;;;3.23;;
14139;SDS011;7150;53.514;9.988;2023-03-01T01:51:28;5.17;;;3.33;;
14139;SDS011;7150;53.514;9.988;2023-03-01T01:54:03;6.43;;;3.43;;
14139;SDS011;7150;53.514;9.988;2023-03-01T01:56:34;5.73;;;3.30;;
14139;SDS011;7150;53.514;9.988;2023-03-01T01:59:04;4.67;;;3.20;;
14139;SDS011;7150;53.514;9.988;2023-03-01T02:01:29;7.63;;;3.47;;
14139;SDS011;7150;53.514;9.988;2023-03-01T02:03:55;7.13;;;3.50;;
14139;SDS011;7150;53.514;9.988;2023-03-01T02:06:28;7.43;;;3.10;;
14139;SDS011;7150;53.514;9.988;2023-03-01T02:08:59;6.33;;;3.17;;
14139;SDS011;7150;53.514;9.988;2023-03-01T02:11:29;6.73;;;3.27;;
14139;SDS011;7150;53.514;9.988;2023-03-01T02:13:56;7.47;;;3.80;;
14139;SDS011;7150;53.514;9.988;2023-03-01T02:16:21;6.63;;;3.47;;
14139;SDS011;7150;53.514;9.988;2023-03-01T02:18:47;7.13;;;3.40;;
14139;SDS011;7150;53.514;9.988;2023-03-01T02:26:59;6.20;;;3.00;;
14139;SDS011;7150;53.514;9.988;2023-03-01T02:29:26;5.13;;;3.53;;
14139;SDS011;7150;53.514;9.988;2023-03-01T02:31:53;4.60;;;3.17;;
14139;SDS011;7150;53.514;9.988;2023-03-01T02:34:22;5.77;;;3.17;;
14139;SDS011;7150;53.514;9.988;2023-03-01T02:36:53;4.63;;;3.00;;
14139;SDS011;7150;53.514;9.988;2023-03-01T02:39:33;6.67;;;3.33;;
14139;SDS011;7150;53.514;9.988;2023-03-01T02:42:07;6.17;;;3.10;;
14139;SDS011;7150;53.514;9.988;2023-03-01T02:44:39;4.73;;;2.87;;
14139;SDS011;7150;53.514;9.988;2023-03-01T02:47:05;6.93;;;3.40;;
14139;SDS011;7150;53.514;9.988;2023-03-01T02:49:32;6.40;;;3.37;;
14139;SDS011;7150;53.514;9.988;2023-03-01T02:55:11;5.47;;;3.30;;
14139;SDS011;7150;53.514;9.988;2023-03-01T02:57:43;7.20;;;3.27;;
14139;SDS011;7150;53.514;9.988;2023-03-01T03:00:11;5.07;;;2.83;;
14139;SDS011;7150;53.514;9.988;2023-03-01T03:02:44;6.63;;;3.00;;
14139;SDS011;7150;53.514;9.988;2023-03-01T03:05:12;6.20;;;3.57;;
14139;SDS011;7150;53.514;9.988;2023-03-01T03:07:40;7.73;;;3.37;;
14139;SDS011;7150;53.514;9.988;2023-03-01T03:10:30;8.63;;;3.50;;
14139;SDS011;7150;53.514;9.988;2023-03-01T03:12:56;5.43;;;3.40;;
14139;SDS011;7150;53.514;9.988;2023-03-01T03:15:24;5.83;;;3.30;;
14139;SDS011;7150;53.514;9.988;2023-03-01T03:17:50;5.53;;;3.20;;
14139;SDS011;7150;53.514;9.988;2023-03-01T03:20:18;6.63;;;3.37;;
14139;SDS011;7150;53.514;9.988;2023-03-01T03:22:47;4.70;;;3.03;;
14139;SDS011;7150;53.514;9.988;2023-03-01T03:25:14;5.83;;;3.33;;
14139;SDS011;7150;53.514;9.988;2023-03-01T03:27:41;7.27;;;3.13;;
14139;SDS011;7150;53.514;9.988;2023-03-01T03:30:09;4.90;;;3.03;;
14139;SDS011;7150;53.514;9.988;2023-03-01T03:32:37;6.33;;;3.03;;
14139;SDS011;7150;53.514;9.988;2023-03-01T03:35:04;6.30;;;3.60;;
14139;SDS011;7150;53.514;9.988;2023-03-01T03:37:37;7.00;;;3.30;;
14139;SDS011;7150;53.514;9.988;2023-03-01T03:40:22;6.73;;;3.13;;
14139;SDS011;7150;53.514;9.988;2023-03-01T03:42:48;7.17;;;3.10;;
14139;SDS011;7150;53.514;9.988;2023-03-01T03:45:14;4.47;;;3.17;;
14139;SDS011;7150;53.514;9.988;2023-03-01T03:47:41;5.77;;;3.03;;
14139;SDS011;7150;53.514;9.988;2023-03-01T03:50:06;8.93;;;3.23;;
14139;SDS011;7150;53.514;9.988;2023-03-01T03:52:33;6.67;;;3.17;;
14139;SDS011;7150;53.514;9.988;2023-03-01T03:54:58;4.60;;;2.70;;
14139;SDS011;7150;53.514;9.988;2023-03-01T03:57:24;7.30;;;2.73;;
14139;SDS011;7150;53.514;9.988;2023-03-01T03:59:49;4.83;;;2.70;;
14139;SDS011;7150;53.514;9.988;2023-03-01T04:02:15;4.03;;;2.80;;
14139;SDS011;7150;53.514;9.988;2023-03-01T04:04:46;4.93;;;2.97;;
14139;SDS011;7150;53.514;9.988;2023-03-01T04:07:15;5.17;;;2.47;;
14139;SDS011;7150;53.514;9.988;2023-03-01T04:09:42;6.57;;;3.40;;
14139;SDS011;7150;53.514;9.988;2023-03-01T04:12:08;6.23;;;2.27;;
14139;SDS011;7150;53.514;9.988;2023-03-01T04:14:34;3.50;;;2.20;;
14139;SDS011;7150;53.514;9.988;2023-03-01T04:17:00;7.77;;;2.50;;
14139;SDS011;7150;53.514;9.988;2023-03-01T04:19:26;3.67;;;2.23;;
14139;SDS011;7150;53.514;9.988;2023-03-01T04:21:52;5.60;;;2.20;;
14139;SDS011;7150;53.514;9.988;2023-03-01T04:24:17;4.10;;;2.27;;
14139;SDS011;7150;53.514;9.988;2023-03-01T04:26:43;3.13;;;2.00;;
14139;SDS011;7150;53.514;9.988;2023-03-01T04:29:08;4.97;;;2.47;;
14139;SDS011;7150;53.514;9.988;2023-03-01T04:31:34;5.10;;;3.00;;
14139;SDS011;7150;53.514;9.988;2023-03-01T04:34:00;5.30;;;2.20;;
14139;SDS011;7150;53.514;9.988;2023-03-01T04:36:26;5.30;;;2.07;;
14139;SDS011;7150;53.514;9.988;2023-03-01T04:38:53;4.93;;;2.80;;
14139;SDS011;7150;53.514;9.988;2023-03-01T04:41:20;5.33;;;2.40;;
14139;SDS011;7150;53.514;9.988;2023-03-01T04:43:47;3.23;;;2.07;;
14139;SDS011;7150;53.514;9.988;2023-03-01T04:46:14;3.53;;;2.07;;
14139;SDS011;7150;53.514;9.988;2023-03-01T04:48:42;3.47;;;2.30;;
14139;SDS011;7150;53.514;9.988;2023-03-01T04:51:08;3.40;;;1.80;;
14139;SDS011;7150;53.514;9.988;2023-03-01T04:53:34;5.07;;;2.10;;
14139;SDS011;7150;53.514;9.988;2023-03-01T04:56:03;5.47;;;2.43;;
14139;SDS011;7150;53.514;9.988;2023-03-01T04:58:29;2.47;;;1.73;;
14139;SDS011;7150;53.514;9.988;2023-03-01T05:00:54;2.53;;;2.00;;
14139;SDS011;7150;53.514;9.988;2023-03-01T05:03:20;3.73;;;2.50;;
14139;SDS011;7150;53.514;9.988;2023-03-01T05:05:48;3.40;;;1.93;;
14139;SDS011;7150;53.514;9.988;2023-03-01T05:08:14;3.47;;;2.10;;
14139;SDS011;7150;53.514;9.988;2023-03-01T05:10:44;2.70;;;2.17;;
14139;SDS011;7150;53.514;9.988;2023-03-01T05:13:11;3.00;;;2.20;;
14139;SDS011;7150;53.514;9.988;2023-03-01T05:15:46;4.47;;;1.90;;
14139;SDS011;7150;53.514;9.988;2023-03-01T05:18:13;3.10;;;2.20;;
14139;SDS011;7150;53.514;9.988;2023-03-01T05:20:38;3.97;;;2.10;;
14139;SDS011;7150;53.514;9.988;2023-03-01T05:23:04;4.37;;;2.10;;
14139;SDS011;7150;53.514;9.988;2023-03-01T05:25:30;4.50;;;2.40;;
14139;SDS011;7150;53.514;9.988;2023-03-01T05:27:58;6.27;;;2.37;;
14139;SDS011;7150;53.514;9.988;2023-03-01T05:30:24;4.67;;;2.30;;
14139;SDS011;7150;53.514;9.988;2023-03-01T05:32:50;5.03;;;2.13;;
14139;SDS011;7150;53.514;9.988;2023-03-01T05:35:20;2.67;;;2.10;;
14139;SDS011;7150;53.514;9.988;2023-03-01T05:37:47;2.53;;;1.90;;
14139;SDS011;7150;53.514;9.988;2023-03-01T05:40:14;5.33;;;2.23;;
14139;SDS011;7150;53.514;9.988;2023-03-01T05:42:43;5.03;;;2.00;;
14139;SDS011;7150;53.514;9.988;2023-03-01T05:45:13;2.53;;;2.00;;
14139;SDS011;7150;53.514;9.988;2023-03-01T05:47:40;5.73;;;2.27;;
14139;SDS011;7150;53.514;9.988;2023-03-01T05:50:16;5.80;;;2.33;;
14139;SDS011;7150;53.514;9.988;2023-03-01T05:52:45;6.90;;;2.90;;
14139;SDS011;7150;53.514;9.988;2023-03-01T05:55:12;4.90;;;2.20;;
14139;SDS011;7150;53.514;9.988;2023-03-01T05:57:37;6.80;;;2.43;;
14139;SDS011;7150;53.514;9.988;2023-03-01T06:00:03;4.73;;;2.70;;
14139;SDS011;7150;53.514;9.988;2023-03-01T06:02:28;8.70;;;2.80;;
14139;SDS011;7150;53.514;9.988;2023-03-01T06:04:54;6.27;;;2.73;;
14139;SDS011;7150;53.514;9.988;2023-03-01T06:07:20;5.70;;;2.90;;
14139;SDS011;7150;53.514;9.988;2023-03-01T06:09:46;6.70;;;2.67;;
14139;SDS011;7150;53.514;9.988;2023-03-01T06:12:11;4.97;;;3.27;;
14139;SDS011;7150;53.514;9.988;2023-03-01T06:14:36;4.53;;;2.60;;
14139;SDS011;7150;53.514;9.988;2023-03-01T06:17:02;5.90;;;2.77;;
14139;SDS011;7150;53.514;9.988;2023-03-01T06:19:28;8.60;;;2.87;;
14139;SDS011;7150;53.514;9.988;2023-03-01T06:21:53;8.43;;;3.10;;
14139;SDS011;7150;53.514;9.988;2023-03-01T06:24:19;7.47;;;2.33;;
14139;SDS011;7150;53.514;9.988;2023-03-01T06:26:44;6.60;;;2.57;;
14139;SDS011;7150;53.514;9.988;2023-03-01T06:29:10;8.43;;;3.20;;
14139;SDS011;7150;53.514;9.988;2023-03-01T06:31:35;7.87;;;3.00;;
14139;SDS011;7150;53.514;9.988;2023-03-01T06:34:01;5.47;;;2.90;;
14139;SDS011;7150;53.514;9.988;2023-03-01T06:36:27;6.20;;;2.77;;
14139;SDS011;7150;53.514;9.988;2023-03-01T06:38:52;6.23;;;3.00;;
14139;SDS011;7150;53.514;9.988;2023-03-01T06:41:18;7.10;;;3.53;;
14139;SDS011;7150;53.514;9.988;2023-03-01T06:43:43;11.47;;;3.90;;
14139;SDS011;7150;53.514;9.988;2023-03-01T06:46:09;4.23;;;2.83;;
14139;SDS011;7150;53.514;9.988;2023-03-01T06:48:34;8.80;;;3.80;;
14139;SDS011;7150;53.514;9.988;2023-03-01T06:51:00;5.87;;;3.03;;
14139;SDS011;7150;53.514;9.988;2023-03-01T06:53:27;5.43;;;3.20;;
14139;SDS011;7150;53.514;9.988;2023-03-01T06:55:54;4.57;;;3.00;;
14139;SDS011;7150;53.514;9.988;2023-03-01T06:58:20;6.03;;;3.40;;
14139;SDS011;7150;53.514;9.988;2023-03-01T07:00:46;4.77;;;3.00;;
14139;SDS011;7150;53.514;9.988;2023-03-01T07:03:11;7.83;;;3.53;;
14139;SDS011;7150;53.514;9.988;2023-03-01T07:05:37;3.77;;;2.30;;
14139;SDS011;7150;53.514;9.988;2023-03-01T07:08:02;7.10;;;2.70;;
14139;SDS011;7150;53.514;9.988;2023-03-01T07:10:28;5.93;;;2.53;;
14139;SDS011;7150;53.514;9.988;2023-03-01T07:12:54;6.07;;;2.90;;
14139;SDS011;7150;53.514;9.988;2023-03-01T07:15:20;5.43;;;2.47;;
14139;SDS011;7150;53.514;9.988;2023-03-01T07:17:46;5.50;;;3.50;;
14139;SDS011;7150;53.514;9.988;2023-03-01T07:20:12;6.40;;;3.20;;
14139;SDS011;7150;53.514;9.988;2023-03-01T07:22:41;7.47;;;3.27;;
14139;SDS011;7150;53.514;9.988;2023-03-01T07:25:07;5.93;;;3.23;;
14139;SDS011;7150;53.514;9.988;2023-03-01T07:27:34;6.90;;;3.00;;
14139;SDS011;7150;53.514;9.988;2023-03-01T07:29:59;9.27;;;3.80;;
14139;SDS011;7150;53.514;9.988;2023-03-01T07:32:25;7.00;;;4.03;;
14139;SDS011;7150;53.514;9.988;2023-03-01T07:34:50;11.30;;;3.10;;
14139;SDS011;7150;53.514;9.988;2023-03-01T07:37:16;5.67;;;3.13;;
14139;SDS011;7150;53.514;9.988;2023-03-01T07:39:41;7.27;;;3.47;;
14139;SDS011;7150;53.514;9.988;2023-03-01T07:42:07;5.53;;;3.10;;
14139;SDS011;7150;53.514;9.988;2023-03-01T07:44:33;8.90;;;3.10;;
14139;SDS011;7150;53.514;9.988;2023-03-01T07:46:59;10.70;;;3.10;;
14139;SDS011;7150;53.514;9.988;2023-03-01T07:49:25;5.83;;;3.47;;
14139;SDS011;7150;53.514;9.988;2023-03-01T07:51:52;9.50;;;3.67;;
14139;SDS011;7150;53.514;9.988;2023-03-01T07:54:17;5.80;;;3.20;;
14139;SDS011;7150;53.514;9.988;2023-03-01T07:56:43;5.93;;;3.00;;
14139;SDS011;7150;53.514;9.988;2023-03-01T07:59:09;14.60;;;3.93;;
14139;SDS011;7150;53.514;9.988;2023-03-01T08:01:34;6.70;;;3.70;;
14139;SDS011;7150;53.514;9.988;2023-03-01T08:04:00;8.93;;;4.27;;
14139;SDS011;7150;53.514;9.988;2023-03-01T08:06:26;6.77;;;3.80;;
14139;SDS011;7150;53.514;9.988;2023-03-01T08:08:52;5.73;;;3.27;;
14139;SDS011;7150;53.514;9.988;2023-03-01T08:11:20;8.77;;;3.80;;
14139;SDS011;7150;53.514;9.988;2023-03-01T08:13:47;6.77;;;3.67;;
14139;SDS011;7150;53.514;9.988;2023-03-01T08:16:14;7.00;;;3.20;;
14139;SDS011;7150;53.514;9.988;2023-03-01T08:18:40;6.37;;;3.47;;
14139;SDS011;7150;53.514;9.988;2023-03-01T08:21:07;8.50;;;3.47;;
14139;SDS011;7150;53.514;9.988;2023-03-01T08:23:37;8.07;;;3.10;;
14139;SDS011;7150;53.514;9.988;2023-03-01T08:26:04;6.00;;;2.90;;
14139;SDS011;7150;53.514;9.988;2023-03-01T08:28:41;9.50;;;4.10;;
14139;SDS011;7150;53.514;9.988;2023-03-01T08:31:14;11.37;;;3.97;;
14139;SDS011;7150;53.514;9.988;2023-03-01T08:33:39;6.57;;;4.40;;
14139;SDS011;7150;53.514;9.988;2023-03-01T08:36:05;7.13;;;3.73;;
14139;SDS011;7150;53.514;9.988;2023-03-01T08:38:31;7.67;;;4.43;;
14139;SDS011;7150;53.514;9.988;2023-03-01T08:41:01;6.20;;;3.40;;
14139;SDS011;7150;53.514;9.988;2023-03-01T08:43:28;7.90;;;4.33;;
14139;SDS011;7150;53.514;9.988;2023-03-01T08:45:54;9.73;;;3.70;;
14139;SDS011;7150;53.514;9.988;2023-03-01T08:48:19;7.87;;;3.93;;
14139;SDS011;7150;53.514;9.988;2023-03-01T08:50:45;9.70;;;3.87;;
14139;SDS011;7150;53.514;9.988;2023-03-01T08:53:10;7.23;;;5.00;;
14139;SDS011;7150;53.514;9.988;2023-03-01T08:55:36;11.20;;;5.30;;
14139;SDS011;7150;53.514;9.988;2023-03-01T08:58:01;8.83;;;5.13;;
14139;SDS011;7150;53.514;9.988;2023-03-01T09:00:27;6.50;;;4.40;;
14139;SDS011;7150;53.514;9.988;2023-03-01T09:02:52;8.33;;;4.07;;
14139;SDS011;7150;53.514;9.988;2023-03-01T09:05:18;11.97;;;4.60;;
14139;SDS011;7150;53.514;9.988;2023-03-01T09:07:43;7.50;;;4.37;;
14139;SDS011;7150;53.514;9.988;2023-03-01T09:10:09;8.53;;;3.97;;
14139;SDS011;7150;53.514;9.988;2023-03-01T09:12:35;13.70;;;5.40;;
14139;SDS011;7150;53.514;9.988;2023-03-01T09:15:00;8.77;;;4.80;;
14139;SDS011;7150;53.514;9.988;2023-03-01T09:17:26;9.33;;;4.63;;
14139;SDS011;7150;53.514;9.988;2023-03-01T09:19:51;10.63;;;5.33;;
14139;SDS011;7150;53.514;9.988;2023-03-01T09:22:17;9.87;;;4.97;;
14139;SDS011;7150;53.514;9.988;2023-03-01T09:24:42;9.10;;;5.40;;
14139;SDS011;7150;53.514;9.988;2023-03-01T09:27:08;9.83;;;5.37;;
14139;SDS011;7150;53.514;9.988;2023-03-01T09:29:35;11.47;;;6.13;;
14139;SDS011;7150;53.514;9.988;2023-03-01T09:32:01;8.67;;;5.40;;
14139;SDS011;7150;53.514;9.988;2023-03-01T09:34:27;9.30;;;4.57;;
14139;SDS011;7150;53.514;9.988;2023-03-01T09:36:53;8.70;;;5.10;;
14139;SDS011;7150;53.514;9.988;2023-03-01T09:39:18;11.37;;;6.07;;
14139;SDS011;7150;53.514;9.988;2023-03-01T09:47:07;10.40;;;6.37;;
14139;SDS011;7150;53.514;9.988;2023-03-01T09:49:42;12.73;;;6.97;;
14139;SDS011;7150;53.514;9.988;2023-03-01T09:55:07;7.93;;;5.40;;
14139;SDS011;7150;53.514;9.988;2023-03-01T09:57:40;13.70;;;5.77;;
14139;SDS011;7150;53.514;9.988;2023-03-01T10:00:26;10.47;;;6.30;;
14139;SDS011;7150;53.514;9.988;2023-03-01T10:04:04;10.23;;;5.80;;
14139;SDS011;7150;53.514;9.988;2023-03-01T10:06:01;13.93;;;6.50;;
14139;SDS011;7150;53.514;9.988;2023-03-01T10:11:24;13.47;;;7.47;;
14139;SDS011;7150;53.514;9.988;2023-03-01T10:16:37;9.70;;;6.23;;
14139;SDS011;7150;53.514;9.988;2023-03-01T10:19:14;11.47;;;7.27;;
14139;SDS011;7150;53.514;9.988;2023-03-01T10:21:44;10.90;;;6.40;;
14139;SDS011;7150;53.514;9.988;2023-03-01T10:24:15;16.40;;;8.07;;
14139;SDS011;7150;53.514;9.988;2023-03-01T10:26:47;9.53;;;6.43;;
14139;SDS011;7150;53.514;9.988;2023-03-01T10:29:13;12.53;;;7.17;;
14139;SDS011;7150;53.514;9.988;2023-03-01T10:31:43;12.13;;;7.27;;
14139;SDS011;7150;53.514;9.988;2023-03-01T10:34:17;12.50;;;7.77;;
14139;SDS011;7150;53.514;9.988;2023-03-01T10:37:08;10.70;;;6.67;;
14139;SDS011;7150;53.514;9.988;2023-03-01T10:39:36;13.03;;;7.10;;
14139;SDS011;7150;53.514;9.988;2023-03-01T10:42:03;9.77;;;6.10;;
14139;SDS011;7150;53.514;9.988;2023-03-01T10:44:41;9.23;;;5.43;;
14139;SDS011;7150;53.514;9.988;2023-03-01T10:47:21;7.93;;;5.37;;
14139;SDS011;7150;53.514;9.988;2023-03-01T10:49:59;10.70;;;5.93;;
14139;SDS011;7150;53.514;9.988;2023-03-01T10:52:29;10.83;;;6.63;;
14139;SDS011;7150;53.514;9.988;2023-03-01T10:55:01;10.63;;;5.97;;
14139;SDS011;7150;53.514;9.988;2023-03-01T10:57:31;12.60;;;6.70;;
14139;SDS011;7150;53.514;9.988;2023-03-01T11:05:24;10.33;;;6.90;;
14139;SDS011;7150;53.514;9.988;2023-03-01T11:07:54;11.03;;;7.07;;
14139;SDS011;7150;53.514;9.988;2023-03-01T11:10:23;9.17;;;5.77;;
14139;SDS011;7150;53.514;9.988;2023-03-01T11:12:53;11.97;;;6.40;;
14139;SDS011;7150;53.514;9.988;2023-03-01T11:15:30;8.07;;;5.10;;
14139;SDS011;7150;53.514;9.988;2023-03-01T11:17:56;10.67;;;5.90;;
14139;SDS011;7150;53.514;9.988;2023-03-01T11:22:52;11.93;;;6.63;;
14139;SDS011;7150;53.514;9.988;2023-03-01T11:25:21;10.70;;;5.37;;
14139;SDS011;7150;53.514;9.988;2023-03-01T11:27:51;10.17;;;5.40;;
14139;SDS011;7150;53.514;9.988;2023-03-01T11:30:20;11.63;;;5.43;;
14139;SDS011;7150;53.514;9.988;2023-03-01T11:35:26;10.70;;;5.73;;
14139;SDS011;7150;53.514;9.988;2023-03-01T11:40:37;8.00;;;5.03;;
14139;SDS011;7150;53.514;9.988;2023-03-01T11:43:24;6.57;;;4.40;;
14139;SDS011;7150;53.514;9.988;2023-03-01T11:54:26;5.80;;;3.73;;
14139;SDS011;7150;53.514;9.988;2023-03-01T11:57:26;8.80;;;5.03;;
14139;SDS011;7150;53.514;9.988;2023-03-01T12:03:22;13.73;;;5.23;;
14139;SDS011;7150;53.514;9.988;2023-03-01T12:05:58;8.27;;;5.50;;
14139;SDS011;7150;53.514;9.988;2023-03-01T12:08:41;6.40;;;4.17;;
14139;SDS011;7150;53.514;9.988;2023-03-01T12:14:34;7.87;;;4.20;;
14139;SDS011;7150;53.514;9.988;2023-03-01T12:20:31;7.53;;;4.30;;
14139;SDS011;7150;53.514;9.988;2023-03-01T12:25:31;6.67;;;3.97;;
14139;SDS011;7150;53.514;9.988;2023-03-01T12:28:07;7.70;;;4.73;;
14139;SDS011;7150;53.514;9.988;2023-03-01T12:30:53;7.67;;;4.20;;
14139;SDS011;7150;53.514;9.988;2023-03-01T12:39:45;8.40;;;4.70;;
14139;SDS011;7150;53.514;9.988;2023-03-01T12:51:01;9.37;;;4.93;;
14139;SDS011;7150;53.514;9.988;2023-03-01T12:53:32;10.20;;;4.53;;
14139;SDS011;7150;53.514;9.988;2023-03-01T12:56:02;9.23;;;4.77;;
14139;SDS011;7150;53.514;9.988;2023-03-01T13:01:35;6.67;;;4.30;;
14139;SDS011;7150;53.514;9.988;2023-03-01T13:10:06;9.90;;;5.03;;
14139;SDS011;7150;53.514;9.988;2023-03-01T13:15:33;8.27;;;4.53;;
14139;SDS011;7150;53.514;9.988;2023-03-01T13:18:01;6.87;;;4.60;;
14139;SDS011;7150;53.514;9.988;2023-03-01T13:20:30;6.83;;;4.37;;
14139;SDS011;7150;53.514;9.988;2023-03-01T13:33:53;6.40;;;4.37;;
14139;SDS011;7150;53.514;9.988;2023-03-01T13:44:12;6.17;;;3.60;;
14139;SDS011;7150;53.514;9.988;2023-03-01T13:49:25;9.00;;;5.00;;
14139;SDS011;7150;53.514;9.988;2023-03-01T13:51:53;8.70;;;5.00;;
14139;SDS011;7150;53.514;9.988;2023-03-01T13:54:24;8.20;;;4.73;;
14139;SDS011;7150;53.514;9.988;2023-03-01T13:56:55;5.53;;;3.70;;
14139;SDS011;7150;53.514;9.988;2023-03-01T13:59:23;7.73;;;4.57;;
14139;SDS011;7150;53.514;9.988;2023-03-01T14:01:58;8.70;;;4.90;;
14139;SDS011;7150;53.514;9.988;2023-03-01T14:04:29;7.07;;;4.40;;
14139;SDS011;7150;53.514;9.988;2023-03-01T14:09:58;12.17;;;6.40;;
14139;SDS011;7150;53.514;9.988;2023-03-01T14:12:39;7.93;;;4.93;;
14139;SDS011;7150;53.514;9.988;2023-03-01T14:15:35;9.53;;;5.00;;
14139;SDS011;7150;53.514;9.988;2023-03-01T14:18:14;7.27;;;4.40;;
14139;SDS011;7150;53.514;9.988;2023-03-01T14:20:46;7.93;;;4.87;;
14139;SDS011;7150;53.514;9.988;2023-03-01T14:23:18;8.10;;;5.13;;
14139;SDS011;7150;53.514;9.988;2023-03-01T14:25:48;7.80;;;4.67;;
14139;SDS011;7150;53.514;9.988;2023-03-01T14:28:26;9.97;;;4.80;;
14139;SDS011;7150;53.514;9.988;2023-03-01T14:30:53;7.17;;;4.80;;
14139;SDS011;7150;53.514;9.988;2023-03-01T14:35:52;7.80;;;5.27;;
14139;SDS011;7150;53.514;9.988;2023-03-01T14:38:23;6.80;;;4.43;;
14139;SDS011;7150;53.514;9.988;2023-03-01T14:41:11;6.30;;;4.00;;
14139;SDS011;7150;53.514;9.988;2023-03-01T14:43:44;12.00;;;4.90;;
14139;SDS011;7150;53.514;9.988;2023-03-01T14:48:48;9.03;;;4.60;;
14139;SDS011;7150;53.514;9.988;2023-03-01T14:51:14;7.03;;;4.20;;
14139;SDS011;7150;53.514;9.988;2023-03-01T14:53:40;8.53;;;4.93;;
14139;SDS011;7150;53.514;9.988;2023-03-01T14:56:12;6.27;;;4.30;;
14139;SDS011;7150;53.514;9.988;2023-03-01T14:58:42;6.93;;;3.93;;
14139;SDS011;7150;53.514;9.988;2023-03-01T15:01:10;9.33;;;4.37;;
14139;SDS011;7150;53.514;9.988;2023-03-01T15:03:43;5.90;;;3.90;;
14139;SDS011;7150;53.514;9.988;2023-03-01T15:06:13;7.97;;;4.03;;
14139;SDS011;7150;53.514;9.988;2023-03-01T15:08:46;6.43;;;4.00;;
14139;SDS011;7150;53.514;9.988;2023-03-01T15:11:28;6.17;;;3.67;;
14139;SDS011;7150;53.514;9.988;2023-03-01T15:13:53;8.50;;;4.80;;
14139;SDS011;7150;53.514;9.988;2023-03-01T15:16:21;7.03;;;4.23;;
14139;SDS011;7150;53.514;9.988;2023-03-01T15:18:53;6.43;;;3.77;;
14139;SDS011;7150;53.514;9.988;2023-03-01T15:21:22;4.53;;;3.30;;
14139;SDS011;7150;53.514;9.988;2023-03-01T15:29:23;6.70;;;4.13;;
14139;SDS011;7150;53.514;9.988;2023-03-01T15:34:34;10.83;;;5.47;;
14139;SDS011;7150;53.514;9.988;2023-03-01T15:37:02;6.67;;;4.60;;
14139;SDS011;7150;53.514;9.988;2023-03-01T15:39:53;7.23;;;3.83;;
14139;SDS011;7150;53.514;9.988;2023-03-01T15:47:41;5.70;;;3.63;;
14139;SDS011;7150;53.514;9.988;2023-03-01T15:50:20;7.97;;;4.13;;
14139;SDS011;7150;53.514;9.988;2023-03-01T15:52:50;9.13;;;4.23;;
14139;SDS011;7150;53.514;9.988;2023-03-01T15:55:20;9.30;;;4.93;;
14139;SDS011;7150;53.514;9.988;2023-03-01T15:57:49;7.17;;;4.10;;
14139;SDS011;7150;53.514;9.988;2023-03-01T16:00:15;8.57;;;4.13;;
14139;SDS011;7150;53.514;9.988;2023-03-01T16:02:42;7.67;;;4.00;;
14139;SDS011;7150;53.514;9.988;2023-03-01T16:05:20;7.10;;;4.40;;
14139;SDS011;7150;53.514;9.988;2023-03-01T16:07:51;6.73;;;3.77;;
14139;SDS011;7150;53.514;9.988;2023-03-01T16:10:17;4.87;;;3.27;;
14139;SDS011;7150;53.514;9.988;2023-03-01T16:12:44;5.00;;;3.43;;
14139;SDS011;7150;53.514;9.988;2023-03-01T16:15:16;6.17;;;4.10;;
14139;SDS011;7150;53.514;9.988;2023-03-01T16:17:49;7.37;;;3.60;;
14139;SDS011;7150;53.514;9.988;2023-03-01T16:20:15;6.97;;;4.90;;
14139;SDS011;7150;53.514;9.988;2023-03-01T16:22:42;8.10;;;4.70;;
14139;SDS011;7150;53.514;9.988;2023-03-01T16:25:09;8.37;;;5.30;;
14139;SDS011;7150;53.514;9.988;2023-03-01T16:27:37;9.53;;;5.23;;
14139;SDS011;7150;53.514;9.988;2023-03-01T16:30:03;10.90;;;6.00;;
14139;SDS011;7150;53.514;9.988;2023-03-01T16:32:30;11.90;;;6.33;;
14139;SDS011;7150;53.514;9.988;2023-03-01T16:34:55;10.30;;;6.17;;
14139;SDS011;7150;53.514;9.988;2023-03-01T16:37:21;12.27;;;6.80;;
14139;SDS011;7150;53.514;9.988;2023-03-01T16:39:47;9.57;;;5.50;;
14139;SDS011;7150;53.514;9.988;2023-03-01T16:42:15;10.07;;;5.67;;
14139;SDS011;7150;53.514;9.988;2023-03-01T16:44:41;12.13;;;7.27;;
14139;SDS011;7150;53.514;9.988;2023-03-01T16:47:07;9.97;;;5.80;;
14139;SDS011;7150;53.514;9.988;2023-03-01T16:49:32;9.53;;;5.80;;
14139;SDS011;7150;53.514;9.988;2023-03-01T16:51:57;8.63;;;4.80;;
14139;SDS011;7150;53.514;9.988;2023-03-01T16:54:24;7.27;;;4.40;;
14139;SDS011;7150;53.514;9.988;2023-03-01T16:56:49;10.90;;;4.90;;
14139;SDS011;7150;53.514;9.988;2023-03-01T16:59:15;8.70;;;5.00;;
14139;SDS011;7150;53.514;9.988;2023-03-01T17:01:41;8.87;;;5.17;;
14139;SDS011;7150;53.514;9.988;2023-03-01T17:04:09;9.37;;;4.63;;
14139;SDS011;7150;53.514;9.988;2023-03-01T17:06:36;10.10;;;5.50;;
14139;SDS011;7150;53.514;9.988;2023-03-01T17:09:02;7.17;;;4.53;;
14139;SDS011;7150;53.514;9.988;2023-03-01T17:11:27;6.83;;;4.23;;
14139;SDS011;7150;53.514;9.988;2023-03-01T17:13:53;9.50;;;5.90;;
14139;SDS011;7150;53.514;9.988;2023-03-01T17:16:19;9.30;;;5.37;;